Time;durP1;ratioP1;P1;durP2;ratioP2;P2;SDS_P1;SDS_P2;PMS_P1;PMS_P2;Temp;Humidity;BMP_temperature;BMP_pressure;BME280_temperature;BME280_humidity;BME280_pressure;Samples;Min_cycle;Max_cycle;Signal;HPM_P1;HPM_P2
2021/06/02 00:00:26;;;;;;;3.45;2.28;;;19.80;93.50;;;;;;5115717;28;20192;-77
2021/06/02 00:02:54;;;;;;;5.95;2.22;;;19.90;93.50;;;;;;5116656;28;20205;-79
2021/06/02 00:05:20;;;;;;;6.13;2.28;;;19.90;93.50;;;;;;5116419;28;20169;-79
2021/06/02 00:07:47;;;;;;;7.03;1.95;;;19.90;94.00;;;;;;5097658;28;20181;-78
2021/06/02 00:10:14;;;;;;;2.75;1.92;;;19.60;94.20;;;;;;5116097;28;20191;-82
2021/06/02 00:12:41;;;;;;;2.55;2.28;;;19.60;94.50;;;;;;5115818;28;20267;-78
2021/06/02 00:15:09;;;;;;;2.85;2.42;;;19.60;94.50;;;;;;5115630;28;20162;-77
2021/06/02 00:17:34;;;;;;;2.47;2.03;;;19.40;94.50;;;;;;5116221;28;20169;-78
2021/06/02 00:20:01;;;;;;;2.80;2.60;;;19.30;94.50;;;;;;5115911;28;20254;-78
2021/06/02 00:22:27;;;;;;;3.47;2.20;;;19.10;94.70;;;;;;5116082;28;20245;-79
2021/06/02 00:24:52;;;;;;;5.18;2.33;;;19.00;95.00;;;;;;5116435;28;20234;-79
2021/06/02 00:27:18;;;;;;;2.33;1.92;;;18.90;95.20;;;;;;5115258;28;20166;-79
2021/06/02 00:29:45;;;;;;;2.35;2.15;;;18.70;95.50;;;;;;5115140;28;20177;-79
2021/06/02 00:32:12;;;;;;;2.80;2.15;;;18.70;95.50;;;;;;5115212;28;20165;-78
2021/06/02 00:34:39;;;;;;;5.05;2.25;;;18.80;95.10;;;;;;5115490;28;20252;-78
2021/06/02 00:37:09;;;;;;;3.90;2.42;;;18.80;95.30;;;;;;5115531;28;20614;-79
2021/06/02 00:39:36;;;;;;;7.25;2.42;;;18.70;95.30;;;;;;5096957;28;20181;-78
2021/06/02 00:42:02;;;;;;;4.72;2.72;;;18.80;95.40;;;;;;5115251;28;20280;-78
2021/06/02 00:44:28;;;;;;;5.97;2.38;;;18.60;95.60;;;;;;5115665;28;20228;-78
2021/06/02 00:46:57;;;;;;;4.68;2.95;;;18.60;95.60;;;;;;5116501;28;20181;-82
2021/06/02 00:49:25;;;;;;;3.55;2.72;;;18.60;95.90;;;;;;5115327;28;20188;-79
2021/06/02 00:52:01;;;;;;;8.13;2.97;;;18.50;96.00;;;;;;5115736;28;20165;-78
2021/06/02 00:54:32;;;;;;;3.35;3.05;;;18.50;96.00;;;;;;5115496;28;20672;-81
2021/06/02 00:57:11;;;;;;;5.00;2.80;;;18.50;96.10;;;;;;5115022;28;20253;-79
2021/06/02 00:59:43;;;;;;;2.97;2.40;;;18.40;96.30;;;;;;5115547;28;20185;-77
2021/06/02 01:02:12;;;;;;;4.28;2.58;;;18.40;96.30;;;;;;5114809;28;20212;-78
2021/06/02 01:04:38;;;;;;;2.67;2.45;;;18.30;96.50;;;;;;5115497;28;20206;-77
2021/06/02 01:07:06;;;;;;;3.38;3.08;;;18.40;96.40;;;;;;5116128;28;20562;-78
2021/06/02 01:09:34;;;;;;;2.88;2.60;;;18.40;96.30;;;;;;5115246;28;20189;-78
2021/06/02 01:12:00;;;;;;;5.50;2.83;;;18.40;96.50;;;;;;5114790;28;20947;-78
2021/06/02 01:14:29;;;;;;;2.63;2.42;;;18.40;96.60;;;;;;5114925;28;20180;-80
2021/06/02 01:16:56;;;;;;;3.30;3.00;;;18.30;96.90;;;;;;5115057;28;20197;-81
2021/06/02 01:19:23;;;;;;;6.80;2.50;;;18.20;97.20;;;;;;5115026;28;20193;-79
2021/06/02 01:22:02;;;;;;;3.80;2.70;;;18.10;97.30;;;;;;5096982;28;20193;-76
2021/06/02 01:24:30;;;;;;;2.90;2.60;;;18.10;97.30;;;;;;5118987;28;20632;-79
2021/06/02 01:26:58;;;;;;;2.40;2.20;;;18.00;97.60;;;;;;5115073;28;20244;-82
2021/06/02 01:29:24;;;;;;;3.50;2.92;;;17.90;97.70;;;;;;5114882;28;20234;-78
2021/06/02 01:32:12;;;;;;;2.83;2.63;;;18.00;97.60;;;;;;5114546;28;20172;-78
2021/06/02 01:34:53;;;;;;;3.60;2.45;;;18.00;97.70;;;;;;5114478;28;20250;-80
2021/06/02 01:37:38;;;;;;;5.93;2.70;;;17.90;97.90;;;;;;5114602;28;20167;-78
2021/06/02 01:40:28;;;;;;;4.90;2.70;;;17.80;98.20;;;;;;5114399;28;20181;-78
2021/06/02 01:43:19;;;;;;;10.60;3.10;;;17.70;98.40;;;;;;5115113;28;20268;-77
2021/06/02 01:45:56;;;;;;;4.68;2.38;;;17.60;98.70;;;;;;5096108;28;20502;-77
2021/06/02 01:48:34;;;;;;;6.88;2.53;;;17.50;98.90;;;;;;5114381;28;20161;-81
2021/06/02 01:51:26;;;;;;;3.53;3.22;;;17.50;99.00;;;;;;5114042;28;20518;-78
2021/06/02 01:54:34;;;;;;;3.92;2.92;;;17.50;99.10;;;;;;5114385;28;20165;-78
2021/06/02 01:57:30;;;;;;;3.25;2.95;;;17.40;99.40;;;;;;5113294;28;20161;-78
2021/06/02 02:00:08;;;;;;;4.38;2.83;;;17.50;99.40;;;;;;5113086;28;20269;-78
2021/06/02 02:02:36;;;;;;;3.15;2.85;;;17.60;99.30;;;;;;5113412;28;20215;-78
2021/06/02 02:05:22;;;;;;;11.02;3.22;;;17.80;99.30;;;;;;5112486;28;20158;-78
2021/06/02 02:08:06;;;;;;;4.68;2.97;;;17.80;99.20;;;;;;5113151;28;20222;-78
2021/06/02 02:10:59;;;;;;;2.88;2.67;;;17.90;99.40;;;;;;5115690;28;20618;-78
2021/06/02 02:13:44;;;;;;;2.55;2.35;;;17.70;99.60;;;;;;5128420;28;20167;-78
2021/06/02 02:16:13;;;;;;;2.65;2.35;;;17.60;99.90;;;;;;5137463;28;20161;-77
2021/06/02 02:19:13;;;;;;;3.35;3.05;;;17.60;99.90;;;;;;5138755;28;20200;-78
2021/06/02 02:21:49;;;;;;;3.33;2.65;;;17.50;99.90;;;;;;5113646;28;20165;-78
2021/06/02 02:24:29;;;;;;;9.52;2.83;;;17.50;99.90;;;;;;5113383;28;20177;-78
2021/06/02 02:27:05;;;;;;;3.33;2.63;;;17.40;99.90;;;;;;5113151;28;20201;-78
2021/06/02 02:29:57;;;;;;;4.70;3.15;;;17.40;99.90;;;;;;5112741;28;20279;-78
2021/06/02 02:32:28;;;;;;;3.38;3.08;;;17.30;99.90;;;;;;5113294;28;20165;-78
2021/06/02 02:35:20;;;;;;;3.90;3.60;;;17.30;99.90;;;;;;5112611;28;20214;-78
2021/06/02 02:38:07;;;;;;;4.03;3.35;;;17.30;99.90;;;;;;5112099;28;20171;-77
2021/06/02 02:41:07;;;;;;;6.82;3.50;;;17.30;99.90;;;;;;5111047;28;20218;-78
2021/06/02 02:43:41;;;;;;;3.95;3.65;;;17.30;99.90;;;;;;5090702;28;20221;-77
2021/06/02 02:46:23;;;;;;;3.47;2.85;;;17.30;99.90;;;;;;5110707;28;20164;-78
2021/06/02 02:49:03;;;;;;;3.45;3.05;;;17.40;99.90;;;;;;5110962;28;20169;-78
2021/06/02 02:52:00;;;;;;;8.73;3.33;;;17.30;99.90;;;;;;5110787;28;20745;-78
2021/06/02 02:54:34;;;;;;;7.85;3.17;;;17.30;99.90;;;;;;5112173;28;20759;-77
2021/06/02 02:57:32;;;;;;;8.45;3.05;;;17.30;99.90;;;;;;5094147;28;20191;-78
2021/06/02 03:00:01;;;;;;;3.80;3.15;;;17.10;99.90;;;;;;5114335;28;20184;-79
2021/06/02 03:02:41;;;;;;;4.13;3.83;;;17.00;99.90;;;;;;5112813;28;20189;-78
2021/06/02 03:05:13;;;;;;;5.25;4.75;;;16.90;99.90;;;;;;5113332;28;20173;-82
2021/06/02 03:07:45;;;;;;;4.72;4.32;;;17.10;99.90;;;;;;5112984;28;20186;-78
2021/06/02 03:10:16;;;;;;;6.00;3.80;;;17.00;99.90;;;;;;5112786;28;20189;-77
2021/06/02 03:12:47;;;;;;;5.35;4.22;;;17.00;99.90;;;;;;5113270;28;20337;-78
2021/06/02 03:15:13;;;;;;;3.63;3.33;;;16.80;99.90;;;;;;5112751;28;20165;-78
2021/06/02 03:18:01;;;;;;;7.25;3.92;;;16.90;99.90;;;;;;5114679;28;20180;-77
2021/06/02 03:20:39;;;;;;;5.30;3.53;;;16.80;99.90;;;;;;5116737;28;20181;-77
2021/06/02 03:23:16;;;;;;;7.50;3.80;;;16.90;99.90;;;;;;5116917;28;20685;-77
2021/06/02 03:26:05;;;;;;;4.30;3.38;;;17.00;99.90;;;;;;5116764;28;20192;-78
2021/06/02 03:28:45;;;;;;;9.02;3.58;;;16.90;99.90;;;;;;5116680;28;20172;-81
2021/06/02 03:31:43;;;;;;;10.30;4.20;;;17.00;99.90;;;;;;5116556;28;20211;-78
2021/06/02 03:34:25;;;;;;;9.02;3.50;;;16.90;99.90;;;;;;5116372;28;20664;-78
2021/06/02 03:37:26;;;;;;;5.78;4.13;;;16.90;99.90;;;;;;5116292;28;20189;-78
2021/06/02 03:40:24;;;;;;;18.42;4.40;;;16.80;99.90;;;;;;5117019;28;20196;-77
2021/06/02 03:43:02;;;;;;;4.88;3.60;;;16.80;99.90;;;;;;5098644;28;20636;-78
2021/06/02 03:46:05;;;;;;;16.40;4.20;;;16.70;99.90;;;;;;5116683;28;20510;-78
2021/06/02 03:49:04;;;;;;;9.63;4.20;;;16.70;99.90;;;;;;5116574;28;20513;-78
2021/06/02 03:51:42;;;;;;;6.88;4.43;;;16.80;99.90;;;;;;5116756;28;20192;-78
2021/06/02 03:54:27;;;;;;;6.28;3.55;;;17.00;99.90;;;;;;5116914;28;20165;-78
2021/06/02 03:57:02;;;;;;;11.10;3.95;;;16.90;99.90;;;;;;5116770;28;20618;-78
2021/06/02 03:59:40;;;;;;;7.18;4.38;;;16.90;99.90;;;;;;5116030;28;20185;-78
2021/06/02 04:02:17;;;;;;;6.35;5.15;;;16.80;99.90;;;;;;5116274;28;20173;-77
2021/06/02 04:05:04;;;;;;;8.95;4.25;;;16.90;99.90;;;;;;5098136;28;20234;-77
2021/06/02 04:07:51;;;;;;;8.93;4.00;;;17.30;99.90;;;;;;5115430;28;20154;-78
2021/06/02 04:10:46;;;;;;;4.57;4.18;;;17.80;99.90;;;;;;5115438;28;20719;-78
2021/06/02 04:13:40;;;;;;;6.25;3.97;;;18.40;99.90;;;;;;5115605;28;20627;-77
2021/06/02 04:16:14;;;;;;;6.07;3.97;;;18.70;99.90;;;;;;5115564;28;20161;-78
2021/06/02 04:18:46;;;;;;;7.50;3.72;;;18.90;99.90;;;;;;5115363;28;20173;-77
2021/06/02 04:21:15;;;;;;;9.55;4.95;;;18.70;99.90;;;;;;5114955;28;20196;-78
2021/06/02 04:23:43;;;;;;;6.97;4.70;;;18.50;99.90;;;;;;5114885;28;20322;-77
2021/06/02 04:26:10;;;;;;;5.80;4.50;;;18.40;99.90;;;;;;5116227;28;20255;-77
2021/06/02 04:28:36;;;;;;;11.38;4.70;;;18.20;99.90;;;;;;5115249;28;20251;-77
2021/06/02 04:31:05;;;;;;;8.48;4.90;;;18.10;99.90;;;;;;5115559;28;20218;-78
2021/06/02 04:33:34;;;;;;;12.23;3.97;;;18.10;99.90;;;;;;5115091;28;20201;-78
2021/06/02 04:36:00;;;;;;;3.65;3.35;;;18.20;99.90;;;;;;5115536;28;20532;-77
2021/06/02 04:38:26;;;;;;;8.48;4.38;;;18.20;99.90;;;;;;5115302;28;20172;-78
2021/06/02 04:40:53;;;;;;;7.60;4.82;;;18.10;99.90;;;;;;5115341;28;20185;-78
2021/06/02 04:43:24;;;;;;;7.00;4.97;;;17.90;99.90;;;;;;5115345;28;20464;-78
2021/06/02 04:45:55;;;;;;;8.98;5.13;;;17.90;99.90;;;;;;5114624;28;20165;-78
2021/06/02 04:48:21;;;;;;;14.85;4.93;;;17.80;99.90;;;;;;5097101;28;20180;-78
2021/06/02 04:50:54;;;;;;;12.15;4.55;;;17.80;99.90;;;;;;5100045;28;20189;-77
2021/06/02 04:53:57;;;;;;;14.30;5.10;;;17.60;99.90;;;;;;5132046;28;20189;-77
2021/06/02 04:57:01;;;;;;;5.93;4.95;;;17.60;99.90;;;;;;5138217;28;20149;-77
2021/06/02 04:59:51;;;;;;;8.98;4.13;;;17.60;99.90;;;;;;5072777;28;20206;-78
2021/06/02 05:02:28;;;;;;;7.72;4.88;;;17.40;99.90;;;;;;5058840;28;20553;-78
2021/06/02 05:05:12;;;;;;;6.15;5.05;;;17.60;99.90;;;;;;5105407;28;20245;-78
2021/06/02 05:08:05;;;;;;;9.55;4.47;;;17.80;99.90;;;;;;5116751;28;20169;-77
2021/06/02 05:11:14;;;;;;;5.47;4.97;;;18.00;99.90;;;;;;5115077;28;20200;-77
2021/06/02 05:13:57;;;;;;;12.32;5.07;;;18.10;99.90;;;;;;5099968;28;20220;-77
2021/06/02 05:16:38;;;;;;;12.68;5.15;;;18.20;99.90;;;;;;5114360;28;20173;-77
2021/06/02 05:22:49;;;;;;;13.18;5.68;;;17.90;99.90;;;;;;5114700;28;20184;-78
2021/06/02 05:25:17;;;;;;;5.63;4.68;;;17.90;99.90;;;;;;5114240;28;20229;-77
2021/06/02 05:28:28;;;;;;;9.25;4.95;;;17.90;99.90;;;;;;5114140;28;20189;-77
2021/06/02 05:31:12;;;;;;;11.55;5.00;;;18.00;99.90;;;;;;5095640;28;20823;-77
2021/06/02 05:34:00;;;;;;;9.82;4.68;;;18.10;99.90;;;;;;5097714;28;20249;-77
2021/06/02 05:36:47;;;;;;;10.18;5.35;;;18.10;99.90;;;;;;5113887;28;20165;-78
2021/06/02 05:39:50;;;;;;;7.50;5.32;;;18.20;99.90;;;;;;5113404;28;20648;-78
2021/06/02 05:42:41;;;;;;;7.90;4.57;;;18.30;99.90;;;;;;5090379;28;20177;-78
2021/06/02 05:45:45;;;;;;;7.32;4.13;;;18.30;99.90;;;;;;5113705;28;20200;-78
2021/06/02 05:48:23;;;;;;;12.02;4.80;;;18.40;99.90;;;;;;5111795;28;20278;-78
2021/06/02 05:51:26;;;;;;;10.68;3.78;;;18.50;99.90;;;;;;5114271;28;20192;-78
2021/06/02 05:54:29;;;;;;;12.57;4.32;;;18.50;99.90;;;;;;5113513;28;20211;-78
2021/06/02 05:57:14;;;;;;;12.43;4.45;;;18.60;99.90;;;;;;5070611;28;20768;-78
2021/06/02 06:00:24;;;;;;;21.15;4.88;;;18.90;99.90;;;;;;5111164;28;20204;-78
2021/06/02 06:03:30;;;;;;;9.50;4.25;;;18.80;99.90;;;;;;5070492;28;20178;-78
2021/06/02 06:06:10;;;;;;;8.00;3.53;;;18.90;99.90;;;;;;5114001;28;20157;-77
2021/06/02 06:09:14;;;;;;;10.23;3.50;;;19.10;99.90;;;;;;5095816;28;20173;-76
2021/06/02 06:12:08;;;;;;;17.77;3.90;;;19.20;99.90;;;;;;5113158;28;20160;-77
2021/06/02 06:15:30;;;;;;;13.82;4.57;;;19.30;99.90;;;;;;5113645;28;20227;-77
2021/06/02 06:18:17;;;;;;;10.13;4.07;;;19.40;99.90;;;;;;5095447;28;20181;-77
2021/06/02 06:21:20;;;;;;;9.35;4.53;;;19.40;99.90;;;;;;5094961;28;20773;-77
2021/06/02 06:24:07;;;;;;;4.25;3.78;;;19.40;99.90;;;;;;5095322;28;20172;-78
2021/06/02 06:26:43;;;;;;;8.80;4.63;;;19.50;99.90;;;;;;5113686;28;20600;-79
2021/06/02 06:29:12;;;;;;;11.80;4.45;;;19.50;99.90;;;;;;5113134;28;20177;-78
2021/06/02 06:31:41;;;;;;;15.38;4.80;;;19.70;99.90;;;;;;5112689;28;20263;-77
2021/06/02 06:34:14;;;;;;;15.02;4.00;;;19.90;99.90;;;;;;5113140;28;20169;-78
2021/06/02 06:36:43;;;;;;;6.28;4.00;;;19.90;99.90;;;;;;5113232;28;20693;-77
2021/06/02 06:39:36;;;;;;;4.28;3.40;;;20.00;99.90;;;;;;5113318;28;20185;-77
2021/06/02 06:42:02;;;;;;;4.82;3.38;;;20.10;99.90;;;;;;5113333;28;20703;-77
2021/06/02 06:44:33;;;;;;;8.68;3.50;;;20.30;99.90;;;;;;5113837;28;20214;-77
2021/06/02 06:47:01;;;;;;;4.65;3.20;;;20.60;99.30;;;;;;5113158;28;20537;-77
2021/06/02 06:49:31;;;;;;;8.13;3.42;;;20.80;98.90;;;;;;5113119;28;20181;-77
2021/06/02 06:51:59;;;;;;;17.08;3.30;;;20.90;99.10;;;;;;5115328;28;20271;-77
2021/06/02 06:54:25;;;;;;;14.80;2.97;;;21.10;98.90;;;;;;5117258;28;20173;-77
2021/06/02 06:56:51;;;;;;;12.15;4.20;;;21.80;97.90;;;;;;5117412;28;20319;-77
2021/06/02 06:59:19;;;;;;;5.75;3.78;;;22.80;97.20;;;;;;5116770;28;20189;-77
2021/06/02 07:01:46;;;;;;;4.53;3.42;;;23.30;95.80;;;;;;5116184;28;20229;-77
2021/06/02 07:04:12;;;;;;;9.45;2.47;;;24.60;94.80;;;;;;5117201;28;20169;-78
2021/06/02 07:06:39;;;;;;;4.22;2.20;;;25.10;93.70;;;;;;5118340;28;20169;-78
2021/06/02 07:09:07;;;;;;;6.35;2.33;;;25.70;92.70;;;;;;5118231;28;20238;-78
2021/06/02 07:11:40;;;;;;;7.68;2.15;;;27.00;91.70;;;;;;5116654;28;20188;-80
2021/06/02 07:14:08;;;;;;;9.52;3.20;;;28.20;90.00;;;;;;5116342;28;20742;-80
2021/06/02 07:16:39;;;;;;;10.40;2.50;;;28.40;89.20;;;;;;5115639;28;20153;-81
2021/06/02 07:19:11;;;;;;;9.27;2.22;;;28.80;86.20;;;;;;5097223;28;20668;-80
2021/06/02 07:21:40;;;;;;;3.10;2.35;;;29.20;85.10;;;;;;5115949;28;20172;-81
2021/06/02 07:24:08;;;;;;;7.82;2.80;;;29.30;84.70;;;;;;5115936;28;20153;-80
2021/06/02 07:26:34;;;;;;;5.13;2.08;;;29.70;83.00;;;;;;5116323;28;20157;-79
2021/06/02 07:29:03;;;;;;;6.72;2.25;;;29.70;81.70;;;;;;5116266;28;20176;-79
2021/06/02 07:31:28;;;;;;;4.78;1.75;;;29.80;80.10;;;;;;5117077;28;20169;-79
2021/06/02 07:34:14;;;;;;;5.93;1.98;;;29.80;80.80;;;;;;5117275;28;20249;-78
2021/06/02 07:36:40;;;;;;;3.95;2.22;;;29.50;80.80;;;;;;5103634;28;20175;-82
2021/06/02 07:39:05;;;;;;;10.68;2.03;;;29.50;80.50;;;;;;5138528;28;20180;-76
2021/06/02 07:41:31;;;;;;;8.90;2.00;;;29.40;79.60;;;;;;5137761;28;20165;-79
2021/06/02 07:43:57;;;;;;;8.43;1.80;;;29.10;79.50;;;;;;5137636;28;20172;-88
2021/06/02 07:46:23;;;;;;;5.60;2.17;;;28.40;80.40;;;;;;5100232;28;20306;-85
2021/06/02 07:48:48;;;;;;;2.47;1.50;;;27.80;81.80;;;;;;5098039;28;20158;-86
2021/06/02 07:51:14;;;;;;;2.75;2.05;;;27.30;82.90;;;;;;5085970;28;20175;-89
2021/06/02 07:53:40;;;;;;;3.53;1.70;;;26.80;84.80;;;;;;5060267;28;20234;-87
2021/06/02 07:56:06;;;;;;;3.40;2.20;;;26.10;84.20;;;;;;5074201;28;20533;-87
2021/06/02 07:58:31;;;;;;;2.72;1.88;;;25.70;84.70;;;;;;5089176;28;20203;-87
2021/06/02 08:00:57;;;;;;;2.97;2.10;;;25.40;88.70;;;;;;5063678;28;20614;-86
2021/06/02 08:03:23;;;;;;;7.82;1.90;;;25.40;87.40;;;;;;5076514;28;20273;-86
2021/06/02 08:05:49;;;;;;;5.88;2.38;;;25.00;85.90;;;;;;5061395;28;20630;-85
2021/06/02 08:08:17;;;;;;;2.15;1.95;;;24.70;86.80;;;;;;5075136;28;20174;-84
2021/06/02 08:10:42;;;;;;;7.88;2.20;;;24.60;86.80;;;;;;5057946;28;20191;-85
2021/06/02 08:13:08;;;;;;;4.28;2.10;;;24.40;86.40;;;;;;5094939;28;20597;-87
2021/06/02 08:15:34;;;;;;;7.82;2.30;;;24.30;86.50;;;;;;5115989;28;20310;-87
2021/06/02 08:18:01;;;;;;;4.35;2.30;;;24.60;87.10;;;;;;5116419;28;20173;-87
2021/06/02 08:20:27;;;;;;;5.13;2.20;;;24.60;85.20;;;;;;5072966;28;20273;-86
2021/06/02 08:22:53;;;;;;;2.58;1.90;;;24.80;87.00;;;;;;5073743;28;20225;-86
2021/06/02 08:25:19;;;;;;;11.27;2.30;;;25.00;87.90;;;;;;5073686;28;20181;-87
2021/06/02 08:27:46;;;;;;;5.72;1.83;;;25.10;88.30;;;;;;5073672;28;20179;-86
2021/06/02 08:30:13;;;;;;;4.05;1.80;;;25.20;88.50;;;;;;5073041;28;20213;-87
2021/06/02 08:32:40;;;;;;;7.78;2.33;;;25.20;88.90;;;;;;5094579;28;20290;-85
2021/06/02 08:35:07;;;;;;;11.02;2.88;;;25.20;88.50;;;;;;5094639;28;20166;-86
2021/06/02 08:37:35;;;;;;;2.67;1.90;;;25.40;87.70;;;;;;5094806;28;20524;-85
2021/06/02 08:40:01;;;;;;;5.82;2.13;;;25.50;86.60;;;;;;5096019;28;20189;-86
2021/06/02 08:42:27;;;;;;;9.68;2.42;;;25.50;85.60;;;;;;5076709;28;20529;-85
2021/06/02 08:44:53;;;;;;;7.63;2.40;;;25.60;86.30;;;;;;5076502;28;20165;-84
2021/06/02 08:47:20;;;;;;;6.88;2.47;;;25.70;85.40;;;;;;5076672;28;20227;-87
2021/06/02 08:49:46;;;;;;;4.53;2.53;;;25.80;85.10;;;;;;5076752;28;20186;-85
2021/06/02 08:52:12;;;;;;;5.85;2.38;;;25.70;81.20;;;;;;5075950;28;20198;-84
2021/06/02 08:54:37;;;;;;;7.68;2.17;;;25.70;85.80;;;;;;5094550;28;20231;-84
2021/06/02 08:57:06;;;;;;;2.95;2.30;;;25.70;85.10;;;;;;5075016;28;20173;-85
2021/06/02 08:59:32;;;;;;;4.93;1.83;;;26.00;86.20;;;;;;5083476;28;20209;-87
2021/06/02 09:01:59;;;;;;;12.65;2.08;;;26.20;82.40;;;;;;5078209;28;20213;-86
2021/06/02 09:04:25;;;;;;;1.65;1.55;;;26.20;82.20;;;;;;5072871;28;20166;-85
2021/06/02 09:06:51;;;;;;;3.47;1.88;;;26.30;82.70;;;;;;5072093;28;20221;-85
2021/06/02 09:09:18;;;;;;;20.92;2.58;;;26.30;83.50;;;;;;5073869;28;20178;-85
2021/06/02 09:11:46;;;;;;;2.55;2.35;;;26.30;82.50;;;;;;5085652;28;20307;-85
2021/06/02 09:14:31;;;;;;;9.15;2.22;;;26.40;83.00;;;;;;5076013;28;20238;-86
2021/06/02 09:16:59;;;;;;;1.55;1.45;;;26.50;81.00;;;;;;5055281;28;20174;-83
2021/06/02 09:19:41;;;;;;;4.50;1.60;;;26.60;80.30;;;;;;5073788;28;20186;-85
2021/06/02 09:22:11;;;;;;;4.68;1.40;;;26.40;77.60;;;;;;5055026;28;20206;-86
2021/06/02 09:24:57;;;;;;;4.78;2.00;;;26.50;77.60;;;;;;5056161;28;20175;-83
2021/06/02 09:27:49;;;;;;;4.55;1.67;;;26.50;78.40;;;;;;5057203;28;20532;-89
2021/06/02 09:30:21;;;;;;;13.00;1.60;;;26.30;78.60;;;;;;5057049;28;20606;-88
2021/06/02 09:32:55;;;;;;;5.97;1.88;;;26.30;78.00;;;;;;5075528;28;20237;-88
2021/06/02 09:35:22;;;;;;;2.42;1.90;;;26.30;78.60;;;;;;5056834;28;20253;-88
2021/06/02 09:37:56;;;;;;;2.42;1.85;;;26.20;78.30;;;;;;5090615;28;20195;-89
2021/06/02 09:40:34;;;;;;;2.60;1.50;;;26.40;77.80;;;;;;5093855;28;20274;-87
2021/06/02 09:43:00;;;;;;;3.92;1.73;;;26.50;76.40;;;;;;5072929;28;20293;-87
2021/06/02 09:45:27;;;;;;;1.60;1.40;;;26.30;78.10;;;;;;5073633;28;20196;-90
2021/06/02 09:48:01;;;;;;;2.38;1.40;;;26.40;77.70;;;;;;5074086;28;20180;-91
2021/06/02 09:50:37;;;;;;;4.80;1.88;;;26.50;76.20;;;;;;5075315;28;20216;-90
2021/06/02 09:53:04;;;;;;;1.58;1.48;;;26.60;76.80;;;;;;5077624;28;20257;-88
2021/06/02 09:55:41;;;;;;;2.80;1.70;;;26.60;74.80;;;;;;5058560;28;20174;-82
2021/06/02 09:58:06;;;;;;;2.00;1.83;;;26.60;76.70;;;;;;5083143;28;20158;-82
2021/06/02 10:00:34;;;;;;;15.10;1.88;;;26.70;75.10;;;;;;5055137;28;20217;-81
2021/06/02 10:03:01;;;;;;;2.33;1.70;;;26.70;74.90;;;;;;5091446;28;20170;-81
2021/06/02 10:05:41;;;;;;;13.57;2.05;;;26.70;74.80;;;;;;5067393;28;20286;-82
2021/06/02 10:08:11;;;;;;;7.50;2.22;;;26.90;75.40;;;;;;5071796;28;20202;-82
2021/06/02 10:10:37;;;;;;;3.53;1.20;;;27.00;75.20;;;;;;5061370;28;20553;-81
2021/06/02 10:13:12;;;;;;;10.70;2.08;;;27.10;75.60;;;;;;5073463;28;20198;-83
2021/06/02 10:15:45;;;;;;;13.05;2.15;;;27.20;73.80;;;;;;5094335;28;20176;-81
2021/06/02 10:18:38;;;;;;;10.07;2.65;;;27.10;74.00;;;;;;5081218;28;20170;-81
2021/06/02 10:21:08;;;;;;;2.70;1.42;;;27.20;74.80;;;;;;5112255;28;20174;-82
2021/06/02 10:23:39;;;;;;;10.60;1.80;;;27.10;74.40;;;;;;5095038;28;20163;-83
2021/06/02 10:26:06;;;;;;;5.75;2.10;;;27.10;75.60;;;;;;5076495;28;20344;-85
2021/06/02 10:28:32;;;;;;;2.58;2.25;;;27.30;75.90;;;;;;5057031;28;20257;-84
2021/06/02 10:31:01;;;;;;;2.70;1.80;;;27.40;76.70;;;;;;5053195;28;20579;-85
2021/06/02 10:33:29;;;;;;;1.73;1.63;;;27.60;75.80;;;;;;5075719;28;20298;-89
2021/06/02 10:35:56;;;;;;;1.70;1.50;;;27.40;75.60;;;;;;5074622;28;20159;-88
2021/06/02 10:38:24;;;;;;;1.70;1.50;;;27.40;75.10;;;;;;5075973;28;20216;-90
2021/06/02 10:40:51;;;;;;;5.50;2.00;;;27.30;75.40;;;;;;5060116;28;20212;-89
2021/06/02 10:43:30;;;;;;;1.50;1.40;;;27.40;76.20;;;;;;5059968;28;20622;-90
2021/06/02 10:46:04;;;;;;;1.80;1.67;;;27.60;75.10;;;;;;5058340;28;20166;-90
2021/06/02 10:48:52;;;;;;;4.75;1.58;;;27.50;74.90;;;;;;5064594;28;20178;-93
2021/06/02 10:51:36;;;;;;;2.13;1.58;;;27.40;75.60;;;;;;5061142;28;20167;-79
2021/06/02 10:54:15;;;;;;;3.22;1.80;;;27.30;76.30;;;;;;5062936;28;20216;-79
2021/06/02 10:57:00;;;;;;;4.63;1.63;;;27.30;77.20;;;;;;5074065;28;20221;-82
2021/06/02 10:59:30;;;;;;;2.30;1.40;;;27.20;76.40;;;;;;5075397;28;20254;-81
2021/06/02 11:02:15;;;;;;;9.95;1.80;;;27.20;76.40;;;;;;5079718;28;20190;-82
2021/06/02 11:05:04;;;;;;;2.42;1.80;;;27.10;76.90;;;;;;5081426;28;20173;-81
2021/06/02 11:07:33;;;;;;;5.05;1.92;;;27.20;76.70;;;;;;5072861;28;20636;-81
2021/06/02 11:10:12;;;;;;;1.55;1.45;;;27.40;76.20;;;;;;5073692;28;20185;-80
2021/06/02 11:12:49;;;;;;;2.42;1.67;;;27.40;74.60;;;;;;5092745;28;20206;-81
2021/06/02 11:15:21;;;;;;;2.65;2.20;;;27.60;75.90;;;;;;5073861;28;20182;-82
2021/06/02 11:18:09;;;;;;;5.85;1.70;;;27.80;76.40;;;;;;5073880;28;20174;-83
2021/06/02 11:20:58;;;;;;;1.88;1.50;;;28.00;75.20;;;;;;5091985;28;20613;-82
2021/06/02 11:23:41;;;;;;;2.72;1.65;;;28.20;74.20;;;;;;5067372;28;20225;-82
2021/06/02 11:26:36;;;;;;;2.10;1.70;;;28.20;75.90;;;;;;5089346;28;20176;-83
2021/06/02 11:29:13;;;;;;;5.18;2.00;;;28.10;75.90;;;;;;5086065;28;20218;-81
2021/06/02 11:31:43;;;;;;;2.92;1.80;;;28.00;76.10;;;;;;5103986;28;20181;-81
2021/06/02 11:34:32;;;;;;;1.42;1.33;;;28.10;75.40;;;;;;5072419;28;20193;-83
2021/06/02 11:37:10;;;;;;;1.63;1.52;;;28.10;74.90;;;;;;5080724;28;20205;-82
2021/06/02 11:39:37;;;;;;;3.47;2.13;;;27.90;75.20;;;;;;5103832;28;20181;-76
2021/06/02 11:42:05;;;;;;;6.68;1.88;;;27.80;76.40;;;;;;5098499;28;20269;-79
2021/06/02 11:44:33;;;;;;;2.45;1.60;;;27.90;78.50;;;;;;5099224;28;20161;-80
2021/06/02 11:46:59;;;;;;;7.57;2.47;;;27.80;78.40;;;;;;5098015;28;20177;-76
2021/06/02 11:49:27;;;;;;;2.20;1.75;;;27.90;77.00;;;;;;5097359;28;20185;-76
2021/06/02 11:51:57;;;;;;;3.17;1.48;;;28.00;78.00;;;;;;5098892;28;20161;-76
2021/06/02 11:54:24;;;;;;;8.18;2.00;;;28.00;77.60;;;;;;5099794;28;20174;-75
2021/06/02 11:56:50;;;;;;;2.95;1.70;;;28.10;78.50;;;;;;5101121;28;20170;-76
2021/06/02 11:59:16;;;;;;;4.57;2.10;;;28.00;77.70;;;;;;5100252;28;20182;-76
2021/06/02 12:01:41;;;;;;;6.43;2.30;;;28.10;77.10;;;;;;5080664;28;20588;-78
2021/06/02 12:04:07;;;;;;;4.15;2.40;;;28.20;77.40;;;;;;5096847;28;20629;-78
2021/06/02 12:06:35;;;;;;;1.70;1.35;;;28.30;76.30;;;;;;5093835;28;20170;-77
2021/06/02 12:09:12;;;;;;;2.42;2.22;;;28.40;76.70;;;;;;5098010;28;20190;-81
2021/06/02 12:11:38;;;;;;;7.45;1.77;;;28.50;75.80;;;;;;5079547;28;20645;-78
2021/06/02 12:14:04;;;;;;;1.85;1.60;;;28.30;75.40;;;;;;5098160;28;20194;-78
2021/06/02 12:16:30;;;;;;;3.55;1.80;;;28.20;75.60;;;;;;5098111;28;20184;-79
2021/06/02 12:18:59;;;;;;;4.38;2.15;;;28.20;76.20;;;;;;5096976;28;20696;-78
2021/06/02 12:21:31;;;;;;;3.33;1.90;;;28.20;76.30;;;;;;5098553;28;20228;-79
2021/06/02 12:24:05;;;;;;;2.28;1.70;;;28.40;76.60;;;;;;5100541;28;20727;-79
2021/06/02 12:26:43;;;;;;;1.85;1.50;;;28.60;76.20;;;;;;5080896;28;20165;-78
2021/06/02 12:29:14;;;;;;;1.77;1.40;;;28.70;76.10;;;;;;5095314;28;20192;-79
2021/06/02 12:31:46;;;;;;;4.30;1.60;;;28.60;75.80;;;;;;5095826;28;20165;-78
2021/06/02 12:34:24;;;;;;;1.73;1.63;;;28.60;76.10;;;;;;5095550;28;20186;-80
2021/06/02 12:36:57;;;;;;;1.50;1.40;;;28.70;75.90;;;;;;5095440;28;20569;-78
2021/06/02 12:39:33;;;;;;;1.45;1.35;;;28.70;75.70;;;;;;5095943;28;20646;-79
2021/06/02 12:42:02;;;;;;;1.45;1.35;;;28.80;75.90;;;;;;5095391;28;20248;-81
2021/06/02 12:44:35;;;;;;;3.33;1.70;;;28.90;75.80;;;;;;5095145;28;20174;-79
2021/06/02 12:47:05;;;;;;;6.10;2.13;;;28.90;76.70;;;;;;5095060;28;20158;-79
2021/06/02 12:49:32;;;;;;;1.65;1.50;;;28.90;76.80;;;;;;5093798;28;20186;-79
2021/06/02 12:51:59;;;;;;;8.27;1.92;;;28.60;77.20;;;;;;5094259;28;20265;-79
2021/06/02 12:54:31;;;;;;;1.60;1.50;;;28.80;76.30;;;;;;5094021;28;20315;-78
2021/06/02 12:56:58;;;;;;;8.10;1.83;;;28.70;76.20;;;;;;5076410;28;20170;-78
2021/06/02 12:59:28;;;;;;;5.97;1.63;;;28.80;76.50;;;;;;5114754;28;20182;-77
2021/06/02 13:02:00;;;;;;;2.83;2.13;;;28.70;76.60;;;;;;5111876;28;20257;-77
2021/06/02 13:04:27;;;;;;;7.63;1.98;;;28.70;77.50;;;;;;5090353;28;20170;-78
2021/06/02 13:06:54;;;;;;;5.75;3.80;;;28.80;76.90;;;;;;5095696;28;20170;-81
2021/06/02 13:09:24;;;;;;;6.22;1.75;;;28.80;76.60;;;;;;5095681;28;20212;-80
2021/06/02 13:11:51;;;;;;;10.88;2.03;;;28.80;75.90;;;;;;5094324;28;20535;-85
2021/06/02 13:14:18;;;;;;;4.50;1.80;;;28.90;76.50;;;;;;5095967;28;20165;-83
2021/06/02 13:16:54;;;;;;;2.20;1.73;;;29.00;76.50;;;;;;5094433;28;20169;-81
2021/06/02 13:19:35;;;;;;;4.63;1.70;;;29.10;76.50;;;;;;5098832;28;20181;-78
2021/06/02 13:22:01;;;;;;;2.10;1.83;;;29.20;77.10;;;;;;5083195;28;20162;-78
2021/06/02 13:24:36;;;;;;;1.60;1.50;;;29.20;76.10;;;;;;5101113;28;20637;-78
2021/06/02 13:27:02;;;;;;;4.18;1.70;;;29.00;77.10;;;;;;5099790;28;20241;-78
2021/06/02 13:29:28;;;;;;;2.42;1.58;;;29.00;76.30;;;;;;5101233;28;20208;-78